createdAt,value
2023-03-24T00:00:52.072Z,5.65
2023-03-24T00:06:28.359Z,3.90
2023-03-24T00:09:19.930Z,5.95
2023-03-24T00:12:12.323Z,4.95
2023-03-24T00:17:47.216Z,5.33
2023-03-24T00:23:19.219Z,7.05
2023-03-24T00:26:14.844Z,10.03
2023-03-24T00:29:07.189Z,7.72
2023-03-24T00:34:41.575Z,6.10
2023-03-24T00:37:33.194Z,4.15
2023-03-24T00:40:25.225Z,4.45
2023-03-24T00:46:02.763Z,5.30
2023-03-24T00:48:56.574Z,6.00
2023-03-24T00:51:47.686Z,4.53
2023-03-24T00:57:22.852Z,7.60
2023-03-24T01:00:16.566Z,5.37
2023-03-24T01:03:07.998Z,4.33
2023-03-24T01:08:38.808Z,4.87
2023-03-24T01:11:30.478Z,4.75
2023-03-24T01:14:21.830Z,5.75
2023-03-24T01:17:13.362Z,4.92
2023-03-24T01:20:08.520Z,5.67
2023-03-24T01:23:02.046Z,5.92
2023-03-24T01:25:54.484Z,5.42
2023-03-24T01:28:46.699Z,4.90
2023-03-24T01:31:38.496Z,4.25
2023-03-24T01:34:29.864Z,6.25
2023-03-24T01:37:23.228Z,4.92
2023-03-24T01:42:58.244Z,4.53
2023-03-24T01:45:59.967Z,6.70
2023-03-24T01:48:55.927Z,5.08
2023-03-24T01:51:49.440Z,5.22
2023-03-24T01:54:43.853Z,4.12
2023-03-24T02:00:20.769Z,6.08
2023-03-24T02:06:10.095Z,3.92
2023-03-24T02:11:41.442Z,4.80
2023-03-24T02:17:30.593Z,4.80
2023-03-24T02:20:59.101Z,3.80
2023-03-24T02:24:09.737Z,5.35
2023-03-24T02:27:10.843Z,3.95
2023-03-24T02:30:54.337Z,6.90
2023-03-24T02:36:59.553Z,3.75
2023-03-24T02:42:42.024Z,4.10
2023-03-24T02:45:38.973Z,4.55
2023-03-24T02:51:17.899Z,3.25
2023-03-24T02:54:15.734Z,5.25
2023-03-24T02:57:11.350Z,3.10
2023-03-24T03:02:54.282Z,5.37
2023-03-24T03:08:32.895Z,9.90
2023-03-24T03:11:25.094Z,6.28
2023-03-24T03:17:09.645Z,9.28
2023-03-24T03:20:06.774Z,6.47
2023-03-24T03:25:43.261Z,3.72
2023-03-24T03:31:18.098Z,4.37
2023-03-24T03:36:59.188Z,3.92
2023-03-24T03:39:53.782Z,5.30
2023-03-24T03:42:46.662Z,8.85
2023-03-24T03:45:38.990Z,8.38
2023-03-24T03:48:32.423Z,7.87
2023-03-24T03:54:07.185Z,8.05
2023-03-24T03:56:58.945Z,7.62
2023-03-24T03:59:52.347Z,7.87
2023-03-24T04:02:49.615Z,6.22
2023-03-24T04:05:46.466Z,6.17
2023-03-24T04:08:47.998Z,5.72
2023-03-24T04:12:01.267Z,3.85
2023-03-24T04:15:18.547Z,6.92
2023-03-24T04:21:48.812Z,3.98
2023-03-24T04:27:31.908Z,3.33
2023-03-24T04:30:26.712Z,3.65
2023-03-24T04:33:22.854Z,6.60
2023-03-24T04:39:03.335Z,4.50
2023-03-24T04:42:01.921Z,3.58
2023-03-24T04:47:39.521Z,2.95
2023-03-24T04:50:40.808Z,3.98
2023-03-24T04:53:33.951Z,1.85
2023-03-24T04:56:47.805Z,4.17
2023-03-24T05:02:28.356Z,3.92
2023-03-24T05:05:22.001Z,5.53
2023-03-24T05:10:52.060Z,2.55
2023-03-24T05:13:44.806Z,2.20
2023-03-24T05:16:37.449Z,3.85
2023-03-24T05:19:29.309Z,2.22
2023-03-24T05:22:21.485Z,3.42
2023-03-24T05:25:13.029Z,4.37
2023-03-24T05:30:54.013Z,6.75
2023-03-24T05:33:49.402Z,5.70
2023-03-24T05:36:42.105Z,9.28
2023-03-24T05:39:33.493Z,6.30
2023-03-24T05:42:32.289Z,6.78
2023-03-24T05:45:25.646Z,8.65
2023-03-24T05:48:17.594Z,9.55
2023-03-24T05:51:11.328Z,11.20
2023-03-24T05:56:40.599Z,3.42
2023-03-24T05:59:36.363Z,4.08
2023-03-24T06:02:46.738Z,4.25
2023-03-24T06:08:16.993Z,4.08
2023-03-24T06:11:09.192Z,5.28
2023-03-24T06:14:02.178Z,1.95
2023-03-24T06:16:55.305Z,3.83
2023-03-24T06:19:48.903Z,3.60
2023-03-24T06:22:42.634Z,6.20
2023-03-24T06:25:37.699Z,10.72
2023-03-24T06:28:34.690Z,13.78
2023-03-24T06:31:29.867Z,11.30
2023-03-24T06:34:22.567Z,12.75
2023-03-24T06:37:15.668Z,12.45
2023-03-24T06:40:09.890Z,13.98
2023-03-24T06:43:02.617Z,10.70
2023-03-24T06:45:54.477Z,8.03
2023-03-24T06:51:26.470Z,7.10
2023-03-24T06:56:57.515Z,7.60
2023-03-24T06:59:52.622Z,7.60
2023-03-24T07:02:44.301Z,5.28
2023-03-24T07:05:37.457Z,5.22
2023-03-24T07:08:38.228Z,3.72
2023-03-24T07:11:25.436Z,5.37
2023-03-24T07:14:22.227Z,4.62
2023-03-24T07:17:13.411Z,5.70
2023-03-24T07:20:22.339Z,4.62
2023-03-24T07:25:53.126Z,4.22
2023-03-24T07:28:46.164Z,2.85
2023-03-24T07:31:38.940Z,3.80
2023-03-24T07:34:32.752Z,5.00
2023-03-24T07:37:24.226Z,8.70
2023-03-24T07:40:16.275Z,6.20
2023-03-24T07:45:48.128Z,4.08
2023-03-24T07:48:39.320Z,4.12
2023-03-24T07:51:30.080Z,5.17
2023-03-24T07:54:25.785Z,7.78
2023-03-24T07:57:18.328Z,7.42
2023-03-24T08:02:54.527Z,6.12
2023-03-24T08:08:43.572Z,5.28
2023-03-24T08:14:21.362Z,5.08
2023-03-24T08:17:12.714Z,3.95
2023-03-24T08:22:43.965Z,2.25
2023-03-24T08:25:35.785Z,4.58
2023-03-24T08:28:26.876Z,4.92
2023-03-24T08:31:18.087Z,6.75
2023-03-24T08:34:10.684Z,4.75
2023-03-24T08:37:05.040Z,3.92
2023-03-24T08:39:59.020Z,3.42
2023-03-24T08:46:13.670Z,3.83
2023-03-24T08:49:04.510Z,6.22
2023-03-24T08:51:55.606Z,4.53
2023-03-24T08:54:47.138Z,2.98
2023-03-24T08:57:38.206Z,2.37
2023-03-24T09:00:29.760Z,2.83
2023-03-24T09:03:23.016Z,3.80
2023-03-24T09:06:15.154Z,3.55
2023-03-24T09:09:06.553Z,3.50
2023-03-24T09:11:57.911Z,5.40
2023-03-24T09:14:51.417Z,2.08
2023-03-24T09:17:43.319Z,2.50
2023-03-24T09:20:36.062Z,4.25
2023-03-24T09:26:07.071Z,4.92
2023-03-24T09:28:58.776Z,2.92
2023-03-24T09:31:52.099Z,2.72
2023-03-24T09:34:43.695Z,3.05
2023-03-24T09:40:22.042Z,3.95
2023-03-24T09:43:16.902Z,2.70
2023-03-24T09:48:53.012Z,2.98
2023-03-24T09:51:46.710Z,3.70
2023-03-24T09:57:25.294Z,4.08
2023-03-24T10:00:22.473Z,3.08
2023-03-24T10:03:20.587Z,2.17
2023-03-24T10:06:14.735Z,1.98
2023-03-24T10:09:32.157Z,5.20
2023-03-24T10:12:29.364Z,3.30
2023-03-24T10:15:37.135Z,7.00
2023-03-24T10:21:07.322Z,6.62
2023-03-24T10:26:43.645Z,8.20
2023-03-24T10:29:36.765Z,4.10
2023-03-24T10:32:30.130Z,3.65
2023-03-24T10:35:25.086Z,3.87
2023-03-24T10:40:57.334Z,3.70
2023-03-24T10:43:50.314Z,2.65
2023-03-24T10:46:45.990Z,3.92
2023-03-24T10:49:39.323Z,2.70
2023-03-24T10:52:31.903Z,3.12
2023-03-24T10:55:25.416Z,3.15
2023-03-24T10:58:21.891Z,2.45
2023-03-24T11:01:27.274Z,3.00
2023-03-24T11:07:07.249Z,4.12
2023-03-24T11:10:06.274Z,3.92
2023-03-24T11:15:51.020Z,2.58
2023-03-24T11:21:32.942Z,3.25
2023-03-24T11:24:24.097Z,6.72
2023-03-24T11:27:18.773Z,5.67
2023-03-24T11:30:15.771Z,3.87
2023-03-24T11:33:07.537Z,6.03
2023-03-24T11:36:05.051Z,4.80
2023-03-24T11:39:00.467Z,5.30
2023-03-24T11:42:07.649Z,3.30
2023-03-24T11:44:59.381Z,6.03
2023-03-24T11:47:52.830Z,4.40
2023-03-24T11:50:45.746Z,2.72
2023-03-24T11:53:41.089Z,4.03
2023-03-24T11:56:35.776Z,2.40
2023-03-24T11:59:36.022Z,4.33
2023-03-24T12:02:31.624Z,3.87
2023-03-24T12:05:33.271Z,3.90
2023-03-24T12:08:38.934Z,4.60
2023-03-24T12:11:34.755Z,3.83
2023-03-24T12:14:30.847Z,2.98
2023-03-24T12:17:24.732Z,4.03
2023-03-24T12:20:25.143Z,6.28
2023-03-24T12:23:19.129Z,5.80
2023-03-24T12:26:17.575Z,6.80
2023-03-24T12:29:52.168Z,4.60
2023-03-24T12:32:55.215Z,5.25
2023-03-24T12:35:54.859Z,6.10
2023-03-24T12:39:01.316Z,4.10
2023-03-24T12:42:03.135Z,4.03
2023-03-24T12:45:26.427Z,4.90
2023-03-24T12:48:28.604Z,6.97
2023-03-24T12:51:26.173Z,4.72
2023-03-24T12:54:24.680Z,3.08
2023-03-24T12:57:18.564Z,5.45
2023-03-24T13:00:15.164Z,6.25
2023-03-24T13:03:10.237Z,3.55
2023-03-24T13:06:14.534Z,2.72
2023-03-24T13:09:06.101Z,2.77
2023-03-24T13:12:01.451Z,3.15
2023-03-24T13:14:57.030Z,4.87
2023-03-24T13:17:51.282Z,4.55
2023-03-24T13:20:45.830Z,3.92
2023-03-24T13:23:43.797Z,3.80
2023-03-24T13:26:40.306Z,7.35
2023-03-24T13:29:48.404Z,6.00
2023-03-24T13:32:37.987Z,5.62
2023-03-24T13:35:38.606Z,6.03
2023-03-24T13:38:33.261Z,4.50
2023-03-24T13:41:27.562Z,7.65
2023-03-24T13:44:22.800Z,6.03
2023-03-24T13:47:16.406Z,8.48
2023-03-24T13:50:11.141Z,6.28
2023-03-24T13:53:10.792Z,5.58
2023-03-24T13:56:15.984Z,10.90
2023-03-24T13:59:24.465Z,7.47
2023-03-24T14:02:27.586Z,9.55
2023-03-24T14:05:58.690Z,4.37
2023-03-24T14:09:03.821Z,8.08
2023-03-24T14:12:21.423Z,5.97
2023-03-24T14:15:21.998Z,4.67
2023-03-24T14:18:43.281Z,4.08
2023-03-24T14:21:37.385Z,6.42
2023-03-24T14:24:33.015Z,6.28
2023-03-24T14:27:30.569Z,5.65
2023-03-24T14:30:25.207Z,5.28
2023-03-24T14:33:27.078Z,4.87
2023-03-24T14:39:22.268Z,5.67
2023-03-24T14:42:49.801Z,8.70
2023-03-24T14:45:45.234Z,6.75
2023-03-24T14:48:43.361Z,4.37
2023-03-24T14:51:39.958Z,4.15
2023-03-24T14:54:52.984Z,6.58
2023-03-24T15:00:28.283Z,6.15
2023-03-24T15:03:24.555Z,4.85
2023-03-24T15:06:17.894Z,7.12
2023-03-24T15:11:52.110Z,4.95
2023-03-24T15:14:44.708Z,4.42
2023-03-24T15:17:36.194Z,6.30
2023-03-24T15:20:29.775Z,6.45
2023-03-24T15:23:22.585Z,3.75
2023-03-24T15:26:16.628Z,5.87
2023-03-24T15:29:09.263Z,7.55
2023-03-24T15:32:00.827Z,3.25
2023-03-24T15:34:54.724Z,6.40
2023-03-24T15:37:48.917Z,4.58
2023-03-24T15:40:43.326Z,6.62
2023-03-24T15:43:34.942Z,6.20
2023-03-24T15:46:29.357Z,5.75
2023-03-24T15:49:28.164Z,5.22
2023-03-24T15:52:32.167Z,5.45
2023-03-24T15:55:26.797Z,5.60
2023-03-24T15:58:25.298Z,4.75
2023-03-24T16:04:12.021Z,4.70
2023-03-24T16:07:04.862Z,3.47
2023-03-24T16:10:01.723Z,6.22
2023-03-24T16:12:53.279Z,4.17
2023-03-24T16:15:48.049Z,5.53
2023-03-24T16:18:42.011Z,8.10
2023-03-24T16:21:33.827Z,8.45
2023-03-24T16:24:25.308Z,5.65
2023-03-24T16:27:17.624Z,3.33
2023-03-24T16:30:20.908Z,3.35
2023-03-24T16:33:13.405Z,4.65
2023-03-24T16:36:05.318Z,3.58
2023-03-24T16:38:58.542Z,2.80
2023-03-24T16:41:50.348Z,2.80
2023-03-24T16:44:41.893Z,2.77
2023-03-24T16:47:33.320Z,3.22
2023-03-24T16:50:32.710Z,3.65
2023-03-24T16:53:23.992Z,3.30
2023-03-24T16:56:17.917Z,2.10
2023-03-24T16:59:10.659Z,4.22
2023-03-24T17:02:05.978Z,3.90
2023-03-24T17:04:57.814Z,3.50
2023-03-24T17:07:50.037Z,5.17
2023-03-24T17:10:42.528Z,4.70
2023-03-24T17:13:34.527Z,1.65
2023-03-24T17:16:28.282Z,3.85
2023-03-24T17:22:04.396Z,3.37
2023-03-24T17:24:57.712Z,4.03
2023-03-24T17:27:48.942Z,1.70
2023-03-24T17:30:40.433Z,1.87
2023-03-24T17:33:31.952Z,1.45
2023-03-24T17:36:23.071Z,2.62
2023-03-24T17:41:58.138Z,2.75
2023-03-24T17:44:49.455Z,1.35
2023-03-24T17:47:41.856Z,4.95
2023-03-24T17:50:33.291Z,4.15
2023-03-24T17:53:26.649Z,3.95
2023-03-24T17:56:17.739Z,3.30
2023-03-24T17:59:09.447Z,4.12
2023-03-24T18:02:00.866Z,5.58
2023-03-24T18:07:30.300Z,6.90
2023-03-24T18:10:21.622Z,5.90
2023-03-24T18:13:13.825Z,5.65
2023-03-24T18:16:20.052Z,5.10
2023-03-24T18:19:01.724Z,4.90
2023-03-24T18:21:53.228Z,6.10
2023-03-24T18:24:44.525Z,7.30
2023-03-24T18:27:36.632Z,7.97
2023-03-24T18:30:28.398Z,6.08
2023-03-24T18:33:19.958Z,4.40
2023-03-24T18:36:13.425Z,5.20
2023-03-24T18:39:06.822Z,7.42
2023-03-24T18:41:57.950Z,6.83
2023-03-24T18:44:49.247Z,6.80
2023-03-24T18:47:40.812Z,9.05
2023-03-24T18:50:32.443Z,9.43
2023-03-24T18:53:24.851Z,9.18
2023-03-24T18:56:17.121Z,9.93
2023-03-24T18:59:09.304Z,9.63
2023-03-24T19:02:01.293Z,10.15
2023-03-24T19:04:52.593Z,7.83
2023-03-24T19:10:23.793Z,8.48
2023-03-24T19:13:16.603Z,10.65
2023-03-24T19:16:10.442Z,10.18
2023-03-24T19:19:01.580Z,6.60
2023-03-24T19:21:52.699Z,7.22
2023-03-24T19:24:44.071Z,8.75
2023-03-24T19:27:37.986Z,5.83
2023-03-24T19:30:29.603Z,7.85
2023-03-24T19:36:01.502Z,7.50
2023-03-24T19:38:53.591Z,9.75
2023-03-24T19:41:44.762Z,11.40
2023-03-24T19:44:36.195Z,9.53
2023-03-24T19:47:27.363Z,8.08
2023-03-24T19:50:19.354Z,8.28
2023-03-24T19:53:11.011Z,8.60
2023-03-24T19:56:03.963Z,8.35
2023-03-24T19:58:55.107Z,10.23
2023-03-24T20:01:46.435Z,7.65
2023-03-24T20:04:37.972Z,7.62
2023-03-24T20:07:29.919Z,8.68
2023-03-24T20:10:21.690Z,8.53
2023-03-24T20:13:12.978Z,8.30
2023-03-24T20:16:04.415Z,7.92
2023-03-24T20:18:55.557Z,6.92
2023-03-24T20:21:47.119Z,8.63
2023-03-24T20:24:38.921Z,7.80
2023-03-24T20:27:30.375Z,8.20
2023-03-24T20:33:03.425Z,8.08
2023-03-24T20:35:55.479Z,8.40
2023-03-24T20:38:46.960Z,8.08
2023-03-24T20:41:38.193Z,9.13
2023-03-24T20:44:29.747Z,9.73
2023-03-24T20:47:20.839Z,7.87
2023-03-24T20:50:13.339Z,10.28
2023-03-24T20:53:04.594Z,7.30
2023-03-24T20:56:04.601Z,8.53
2023-03-24T20:58:55.732Z,8.50
2023-03-24T21:01:48.837Z,8.03
2023-03-24T21:04:40.243Z,7.85
2023-03-24T21:07:31.719Z,10.48
2023-03-24T21:10:23.261Z,10.13
2023-03-24T21:15:54.346Z,7.87
2023-03-24T21:18:45.661Z,7.62
2023-03-24T21:21:38.399Z,10.93
2023-03-24T21:27:10.896Z,7.67
2023-03-24T21:32:41.412Z,8.93
2023-03-24T21:35:32.639Z,8.55
2023-03-24T21:41:10.713Z,10.48
2023-03-24T21:44:03.923Z,10.98
2023-03-24T21:46:56.699Z,10.03
2023-03-24T21:49:49.444Z,12.63
2023-03-24T21:55:21.312Z,12.13
2023-03-24T21:58:12.326Z,10.80
2023-03-24T22:01:04.153Z,11.20
2023-03-24T22:06:37.148Z,11.60
2023-03-24T22:09:29.229Z,11.95
2023-03-24T22:15:13.545Z,11.68
2023-03-24T22:20:33.790Z,11.30
2023-03-24T22:26:09.927Z,11.90
2023-03-24T22:29:02.400Z,12.53
2023-03-24T22:34:34.206Z,13.15
2023-03-24T22:37:25.592Z,13.80
2023-03-24T22:40:17.094Z,12.13
2023-03-24T22:43:08.663Z,12.65
2023-03-24T22:46:00.640Z,11.93
2023-03-24T22:48:52.300Z,12.13
2023-03-24T22:51:44.295Z,11.18
2023-03-24T22:54:35.750Z,9.95
2023-03-24T23:00:12.989Z,10.13
2023-03-24T23:03:04.509Z,11.20
2023-03-24T23:05:57.030Z,9.65
2023-03-24T23:08:49.687Z,11.48
2023-03-24T23:11:41.011Z,9.65
2023-03-24T23:14:32.322Z,10.48
2023-03-24T23:17:25.453Z,8.98
2023-03-24T23:25:40.433Z,11.43
2023-03-24T23:28:33.687Z,13.22
2023-03-24T23:31:27.321Z,12.88
2023-03-24T23:34:18.496Z,14.80
2023-03-24T23:37:09.652Z,9.83
2023-03-24T23:42:39.586Z,9.20
2023-03-24T23:48:15.761Z,9.73
2023-03-24T23:51:09.225Z,14.23
2023-03-24T23:56:45.755Z,8.95
2023-03-24T23:59:37.360Z,9.28
